Matsuto, Japan
Current Conditions -  °F | °C
As of 3:00 PM on Sunday 23 Nov 2014 (Local Time) from RJNK Reporting Station
Broken Clouds Broken Clouds  
Wind Chill: 59°   Ceiling: 23000
Heat Index: 59°   Visibility: 6mi
Dew Point: 46°   Wind: 13mph
Humidity: 63%   Direction: 20°NNE
Pressure: 30.24"   Gusts: NA
Location:  36.52°N, 136.57°E
Report Text: RJNK 230600Z 02011KT 9999 FEW030 BKN230 15/08 Q1024
Loading
Personal Weather Stations






























Interactive Weather Map New forecast layout! Learn more

10-Day Weather Forecast

Advertisements
Track Severe Weather on mobile